createdAt,value
2023-06-14T00:01:56.613Z,41.00
2023-06-14T00:06:58.763Z,40.80
2023-06-14T00:12:00.540Z,40.80
2023-06-14T00:17:02.545Z,40.60
2023-06-14T00:22:04.389Z,40.50
2023-06-14T00:27:06.442Z,40.40
2023-06-14T00:32:08.788Z,40.40
2023-06-14T00:37:10.749Z,40.40
2023-06-14T00:42:12.522Z,40.30
2023-06-14T00:47:14.424Z,40.20
2023-06-14T00:52:17.516Z,40.10
2023-06-14T00:57:20.545Z,40.00
2023-06-14T01:02:22.246Z,40.00
2023-06-14T01:07:43.254Z,40.10
2023-06-14T01:13:04.135Z,40.60
2023-06-14T01:18:05.883Z,39.90
2023-06-14T01:23:07.765Z,39.80
2023-06-14T01:28:12.697Z,39.80
2023-06-14T01:33:15.652Z,39.60
2023-06-14T01:38:18.694Z,39.90
2023-06-14T01:43:21.178Z,39.80
2023-06-14T01:48:22.977Z,39.90
2023-06-14T01:53:24.657Z,39.90
2023-06-14T01:58:27.501Z,39.80
2023-06-14T02:03:29.204Z,39.90
2023-06-14T02:08:31.162Z,40.00
2023-06-14T02:13:32.803Z,39.80
2023-06-14T02:18:34.464Z,40.10
2023-06-14T02:23:36.207Z,40.10
2023-06-14T02:28:38.003Z,40.00
2023-06-14T02:33:40.036Z,40.20
2023-06-14T02:38:42.200Z,40.00
2023-06-14T02:43:44.054Z,40.10
2023-06-14T02:48:46.348Z,40.20
2023-06-14T02:53:48.083Z,40.10
2023-06-14T02:58:49.960Z,40.30
2023-06-14T03:03:51.597Z,40.40
2023-06-14T03:08:56.043Z,40.20
2023-06-14T03:13:58.126Z,40.40
2023-06-14T03:18:59.745Z,40.50
2023-06-14T03:24:01.469Z,40.50
2023-06-14T03:29:03.276Z,40.60
2023-06-14T03:34:05.034Z,40.70
2023-06-14T03:39:06.735Z,40.90
2023-06-14T03:44:08.523Z,42.10
2023-06-14T03:49:11.016Z,41.40
2023-06-14T03:54:52.773Z,41.40
2023-06-14T03:59:34.331Z,41.50
2023-06-14T04:04:36.533Z,41.40
2023-06-14T04:09:38.619Z,41.60
2023-06-14T04:14:41.017Z,41.80
2023-06-14T04:19:42.815Z,42.00
2023-06-14T04:24:45.877Z,42.20
2023-06-14T04:29:54.397Z,42.10
2023-06-14T04:35:00.233Z,42.30
2023-06-14T04:40:02.119Z,42.50
2023-06-14T04:45:03.960Z,42.60
2023-06-14T04:50:05.822Z,42.70
2023-06-14T04:55:08.026Z,42.80
2023-06-14T05:00:12.575Z,42.90
2023-06-14T05:05:17.159Z,43.00
2023-06-14T05:10:19.086Z,43.10
2023-06-14T05:15:20.799Z,43.20
2023-06-14T05:20:24.066Z,43.30
2023-06-14T05:25:25.946Z,43.40
2023-06-14T05:30:27.680Z,43.40
2023-06-14T05:35:29.430Z,43.50
2023-06-14T05:40:31.353Z,43.70
2023-06-14T05:45:33.165Z,43.90
2023-06-14T05:50:34.821Z,44.80
2023-06-14T05:55:37.571Z,45.00
2023-06-14T06:00:39.647Z,45.30
2023-06-14T06:05:41.493Z,45.60
2023-06-14T06:10:43.400Z,45.80
2023-06-14T06:15:45.339Z,46.00
2023-06-14T06:20:48.204Z,46.20
2023-06-14T06:25:50.086Z,46.30
2023-06-14T06:30:52.259Z,46.40
2023-06-14T06:35:54.285Z,46.40
2023-06-14T06:40:57.925Z,46.20
2023-06-14T06:45:59.532Z,46.10
2023-06-14T06:51:01.192Z,45.80
2023-06-14T06:56:02.936Z,45.30
2023-06-14T07:01:04.703Z,45.40
2023-06-14T07:06:06.575Z,45.30
2023-06-14T07:11:08.548Z,45.10
2023-06-14T07:16:10.154Z,44.90
2023-06-14T07:21:11.940Z,44.80
2023-06-14T07:26:13.549Z,44.40
2023-06-14T07:31:16.261Z,44.10
2023-06-14T07:36:18.798Z,44.20
2023-06-14T07:41:20.570Z,43.80
2023-06-14T07:46:22.359Z,43.70
2023-06-14T07:51:24.442Z,43.70
2023-06-14T07:56:26.699Z,43.40
2023-06-14T08:01:29.239Z,43.30
2023-06-14T08:06:31.852Z,43.20
2023-06-14T08:11:35.515Z,44.10
2023-06-14T08:16:37.547Z,44.90
2023-06-14T08:21:39.489Z,44.70
2023-06-14T08:26:41.218Z,44.40
2023-06-14T08:31:42.974Z,45.00
2023-06-14T08:36:44.631Z,44.70
2023-06-14T08:41:49.830Z,45.10
2023-06-14T08:46:53.058Z,44.40
2023-06-14T08:51:58.761Z,44.00
2023-06-14T08:57:00.814Z,43.90
2023-06-14T09:02:12.910Z,44.40
2023-06-14T09:07:15.889Z,43.70
2023-06-14T09:12:17.943Z,44.10
2023-06-14T09:17:19.855Z,43.60
2023-06-14T09:22:22.382Z,43.70
2023-06-14T09:27:24.019Z,44.00
2023-06-14T09:32:26.320Z,44.20
2023-06-14T09:37:31.814Z,44.50
2023-06-14T09:42:36.863Z,44.70
2023-06-14T09:47:42.642Z,44.80
2023-06-14T09:52:53.301Z,45.10
2023-06-14T09:57:55.490Z,45.30
2023-06-14T10:03:01.657Z,44.80
2023-06-14T10:08:09.449Z,44.70
2023-06-14T10:13:11.718Z,44.70
2023-06-14T10:18:34.750Z,44.70
2023-06-14T10:23:39.444Z,44.60
2023-06-14T10:28:41.104Z,44.60
2023-06-14T10:33:51.722Z,44.60
2023-06-14T10:39:05.588Z,44.50
2023-06-14T10:44:13.287Z,44.70
2023-06-14T10:49:21.277Z,44.70
2023-06-14T10:54:23.491Z,44.70
2023-06-14T10:59:25.169Z,44.80
2023-06-14T11:04:35.790Z,44.80
2023-06-14T11:09:48.565Z,44.90
2023-06-14T11:14:50.510Z,45.00
2023-06-14T11:20:08.004Z,45.00
2023-06-14T11:25:10.409Z,45.10
2023-06-14T11:30:12.824Z,45.30
2023-06-14T11:35:14.753Z,45.40
2023-06-14T11:40:16.992Z,45.40
2023-06-14T11:45:19.964Z,45.40
2023-06-14T11:50:24.280Z,45.50
2023-06-14T11:55:26.429Z,45.60
2023-06-14T12:00:30.892Z,45.70
2023-06-14T12:05:34.518Z,45.70
2023-06-14T12:10:44.865Z,45.70
2023-06-14T12:15:54.692Z,45.80
2023-06-14T12:21:03.601Z,45.90
2023-06-14T12:26:06.025Z,45.90
2023-06-14T12:31:08.313Z,46.00
2023-06-14T12:36:11.134Z,46.00
2023-06-14T12:41:13.391Z,46.00
2023-06-14T12:46:15.130Z,46.00
2023-06-14T12:51:16.937Z,46.00
2023-06-14T12:56:18.793Z,45.90
2023-06-14T13:01:20.684Z,45.90
2023-06-14T13:06:23.720Z,45.90
2023-06-14T13:11:25.606Z,46.30
2023-06-14T13:16:27.300Z,46.40
2023-06-14T13:21:29.023Z,46.70
2023-06-14T13:26:30.690Z,47.60
2023-06-14T13:31:32.590Z,47.20
2023-06-14T13:36:35.850Z,47.20
2023-06-14T13:41:37.636Z,47.20
2023-06-14T13:46:39.382Z,47.20
2023-06-14T13:51:41.184Z,47.20
2023-06-14T13:56:43.188Z,47.20
2023-06-14T14:01:44.874Z,47.30
2023-06-14T14:06:49.299Z,47.30
2023-06-14T14:11:51.272Z,47.30
2023-06-14T14:16:54.376Z,47.40
2023-06-14T14:21:56.024Z,47.30
2023-06-14T14:27:00.858Z,47.40
2023-06-14T14:32:02.951Z,47.50
2023-06-14T14:37:04.767Z,47.60
2023-06-14T14:42:07.424Z,47.40
2023-06-14T14:47:10.230Z,47.60
2023-06-14T14:52:23.524Z,47.60
2023-06-14T14:57:25.950Z,45.60
2023-06-14T15:02:27.610Z,43.60
2023-06-14T15:07:29.411Z,42.60
2023-06-14T15:12:31.184Z,41.60
2023-06-14T15:17:32.985Z,41.60
2023-06-14T15:22:34.738Z,42.30
2023-06-14T15:27:36.860Z,42.50
2023-06-14T15:32:38.586Z,42.80
2023-06-14T15:37:40.266Z,43.10
2023-06-14T15:42:41.982Z,43.50
2023-06-14T15:47:43.806Z,44.90
2023-06-14T15:52:45.656Z,43.80
2023-06-14T15:57:47.340Z,45.20
2023-06-14T16:02:50.729Z,45.40
2023-06-14T16:07:53.836Z,46.70
2023-06-14T16:12:55.576Z,45.60
2023-06-14T16:17:57.347Z,44.60
2023-06-14T16:22:59.077Z,42.70
2023-06-14T16:28:01.046Z,41.70
2023-06-14T16:33:02.963Z,40.60
2023-06-14T16:38:04.734Z,41.20
2023-06-14T16:43:06.325Z,40.80
2023-06-14T16:48:08.301Z,40.40
2023-06-14T16:53:09.918Z,39.40
2023-06-14T16:58:11.701Z,39.90
2023-06-14T17:03:13.622Z,39.60
2023-06-14T17:08:15.445Z,39.90
2023-06-14T17:13:17.282Z,39.50
2023-06-14T17:18:18.963Z,39.40
2023-06-14T17:23:20.838Z,39.50
2023-06-14T17:28:22.483Z,39.60
2023-06-14T17:33:24.157Z,39.80
2023-06-14T17:38:30.281Z,39.80
2023-06-14T17:43:32.054Z,39.80
2023-06-14T17:48:34.494Z,39.80
2023-06-14T17:53:36.229Z,39.50
2023-06-14T17:58:37.961Z,40.00
2023-06-14T18:03:39.612Z,40.20
2023-06-14T18:08:48.675Z,40.10
2023-06-14T18:13:50.552Z,39.80
2023-06-14T18:18:52.640Z,40.00
2023-06-14T18:23:55.340Z,39.90
2023-06-14T18:28:57.490Z,39.80
2023-06-14T18:33:59.129Z,39.90
2023-06-14T18:39:00.924Z,40.00
2023-06-14T18:44:02.746Z,39.90
2023-06-14T18:49:04.458Z,40.10
2023-06-14T18:54:06.318Z,40.50
2023-06-14T18:59:07.919Z,41.10
2023-06-14T19:04:09.618Z,41.20
2023-06-14T19:09:11.357Z,41.60
2023-06-14T19:14:13.060Z,41.80
2023-06-14T19:19:15.285Z,41.90
2023-06-14T19:24:17.088Z,42.00
2023-06-14T19:29:18.891Z,42.10
2023-06-14T19:34:21.042Z,42.20
2023-06-14T19:39:23.036Z,42.20
2023-06-14T19:44:24.653Z,42.40
2023-06-14T19:49:26.343Z,42.70
2023-06-14T19:54:30.182Z,42.80
2023-06-14T19:59:34.583Z,43.00
2023-06-14T20:04:38.985Z,43.10
2023-06-14T20:09:41.160Z,43.20
2023-06-14T20:14:43.113Z,43.30
2023-06-14T20:19:44.983Z,43.20
2023-06-14T20:24:46.800Z,43.20
2023-06-14T20:29:48.760Z,43.20
2023-06-14T20:34:50.542Z,43.30
2023-06-14T20:39:54.747Z,43.30
2023-06-14T20:44:56.477Z,43.30
2023-06-14T20:49:58.265Z,43.40
2023-06-14T20:55:00.024Z,43.40
2023-06-14T21:00:07.622Z,43.50
2023-06-14T21:05:09.617Z,43.70
2023-06-14T21:10:11.329Z,43.80
2023-06-14T21:15:13.122Z,44.00
2023-06-14T21:20:15.225Z,44.30
2023-06-14T21:25:17.141Z,44.60
2023-06-14T21:30:19.094Z,44.70
2023-06-14T21:35:21.044Z,44.90
2023-06-14T21:40:22.932Z,45.00
2023-06-14T21:45:24.590Z,45.40
2023-06-14T21:50:26.324Z,45.40
2023-06-14T21:55:28.934Z,45.50
2023-06-14T22:00:30.711Z,45.70
2023-06-14T22:05:32.626Z,45.70
2023-06-14T22:10:34.478Z,45.90
2023-06-14T22:15:36.326Z,46.00
2023-06-14T22:20:39.703Z,46.10
2023-06-14T22:25:41.757Z,46.10
2023-06-14T22:30:45.804Z,46.20
2023-06-14T22:35:47.742Z,46.20
2023-06-14T22:40:49.938Z,46.30
2023-06-14T22:45:52.488Z,46.30
2023-06-14T22:50:54.171Z,46.40
2023-06-14T22:55:55.975Z,46.40
2023-06-14T23:00:58.579Z,46.50
2023-06-14T23:06:03.913Z,46.50
2023-06-14T23:11:05.834Z,46.60
2023-06-14T23:16:08.916Z,46.70
2023-06-14T23:21:14.480Z,46.60
2023-06-14T23:26:16.747Z,46.60
2023-06-14T23:31:19.172Z,46.70
2023-06-14T23:36:20.995Z,46.70
2023-06-14T23:41:32.187Z,46.70
2023-06-14T23:46:34.064Z,46.70
2023-06-14T23:51:36.201Z,46.80
2023-06-14T23:56:40.554Z,46.80
